sensor_id;sensor_type;location;lat;lon;timestamp;P1;durP1;ratioP1;P2;durP2;ratioP2
58647;SDS011;45992;45.920;20.074;2022-12-18T00:01:42;52.10;;;29.73;;
58647;SDS011;45992;45.920;20.074;2022-12-18T00:04:13;53.58;;;31.73;;
58647;SDS011;45992;45.920;20.074;2022-12-18T00:06:41;56.17;;;29.58;;
58647;SDS011;45992;45.920;20.074;2022-12-18T00:09:07;57.83;;;32.30;;
58647;SDS011;45992;45.920;20.074;2022-12-18T00:11:33;54.33;;;30.87;;
58647;SDS011;45992;45.920;20.074;2022-12-18T00:13:59;52.90;;;30.30;;
58647;SDS011;45992;45.920;20.074;2022-12-18T00:16:26;50.88;;;28.63;;
58647;SDS011;45992;45.920;20.074;2022-12-18T00:18:53;52.75;;;30.35;;
58647;SDS011;45992;45.920;20.074;2022-12-18T00:21:20;56.88;;;31.85;;
58647;SDS011;45992;45.920;20.074;2022-12-18T00:23:46;60.30;;;30.73;;
58647;SDS011;45992;45.920;20.074;2022-12-18T00:26:14;65.70;;;32.65;;
58647;SDS011;45992;45.920;20.074;2022-12-18T00:28:41;58.15;;;31.80;;
58647;SDS011;45992;45.920;20.074;2022-12-18T00:31:09;62.53;;;33.13;;
58647;SDS011;45992;45.920;20.074;2022-12-18T00:33:35;63.55;;;33.15;;
58647;SDS011;45992;45.920;20.074;2022-12-18T00:36:02;61.83;;;31.92;;
58647;SDS011;45992;45.920;20.074;2022-12-18T00:38:28;54.67;;;30.50;;
58647;SDS011;45992;45.920;20.074;2022-12-18T00:40:54;49.50;;;29.52;;
58647;SDS011;45992;45.920;20.074;2022-12-18T00:43:20;51.78;;;29.67;;
58647;SDS011;45992;45.920;20.074;2022-12-18T00:45:46;55.57;;;31.13;;
58647;SDS011;45992;45.920;20.074;2022-12-18T00:48:12;52.17;;;28.70;;
58647;SDS011;45992;45.920;20.074;2022-12-18T00:50:38;52.77;;;28.23;;
58647;SDS011;45992;45.920;20.074;2022-12-18T00:53:04;54.30;;;29.13;;
58647;SDS011;45992;45.920;20.074;2022-12-18T00:55:31;52.35;;;30.00;;
58647;SDS011;45992;45.920;20.074;2022-12-18T00:57:57;55.70;;;29.40;;
58647;SDS011;45992;45.920;20.074;2022-12-18T01:00:23;50.58;;;30.83;;
58647;SDS011;45992;45.920;20.074;2022-12-18T01:02:49;51.20;;;28.80;;
58647;SDS011;45992;45.920;20.074;2022-12-18T01:05:15;56.20;;;28.93;;
58647;SDS011;45992;45.920;20.074;2022-12-18T01:07:42;54.03;;;27.70;;
58647;SDS011;45992;45.920;20.074;2022-12-18T01:10:09;49.90;;;28.77;;
58647;SDS011;45992;45.920;20.074;2022-12-18T01:12:37;47.10;;;28.48;;
58647;SDS011;45992;45.920;20.074;2022-12-18T01:15:04;53.20;;;29.33;;
58647;SDS011;45992;45.920;20.074;2022-12-18T01:17:30;51.60;;;29.67;;
58647;SDS011;45992;45.920;20.074;2022-12-18T01:19:56;53.55;;;28.60;;
58647;SDS011;45992;45.920;20.074;2022-12-18T01:22:22;50.17;;;28.25;;
58647;SDS011;45992;45.920;20.074;2022-12-18T01:24:48;54.88;;;30.10;;
58647;SDS011;45992;45.920;20.074;2022-12-18T01:27:14;58.10;;;32.10;;
58647;SDS011;45992;45.920;20.074;2022-12-18T01:29:40;57.97;;;32.17;;
58647;SDS011;45992;45.920;20.074;2022-12-18T01:32:07;57.55;;;33.30;;
58647;SDS011;45992;45.920;20.074;2022-12-18T01:34:34;62.87;;;33.17;;
58647;SDS011;45992;45.920;20.074;2022-12-18T01:37:01;65.22;;;33.55;;
58647;SDS011;45992;45.920;20.074;2022-12-18T01:39:27;65.43;;;34.53;;
58647;SDS011;45992;45.920;20.074;2022-12-18T01:41:53;63.47;;;33.88;;
58647;SDS011;45992;45.920;20.074;2022-12-18T01:47:59;58.47;;;31.75;;
58647;SDS011;45992;45.920;20.074;2022-12-18T01:50:03;49.33;;;30.27;;
58647;SDS011;45992;45.920;20.074;2022-12-18T01:52:31;59.67;;;31.33;;
58647;SDS011;45992;45.920;20.074;2022-12-18T01:54:57;54.45;;;30.27;;
58647;SDS011;45992;45.920;20.074;2022-12-18T01:57:24;56.38;;;30.13;;
58647;SDS011;45992;45.920;20.074;2022-12-18T01:59:52;52.80;;;30.05;;
58647;SDS011;45992;45.920;20.074;2022-12-18T02:02:18;51.78;;;30.38;;
58647;SDS011;45992;45.920;20.074;2022-12-18T02:04:45;56.65;;;30.60;;
58647;SDS011;45992;45.920;20.074;2022-12-18T02:09:40;53.65;;;29.83;;
58647;SDS011;45992;45.920;20.074;2022-12-18T02:12:19;52.65;;;29.17;;
58647;SDS011;45992;45.920;20.074;2022-12-18T02:24:45;52.25;;;29.10;;
58647;SDS011;45992;45.920;20.074;2022-12-18T02:27:14;56.63;;;30.92;;
58647;SDS011;45992;45.920;20.074;2022-12-18T02:29:41;53.70;;;33.47;;
58647;SDS011;45992;45.920;20.074;2022-12-18T02:32:12;53.38;;;32.75;;
58647;SDS011;45992;45.920;20.074;2022-12-18T02:34:39;55.40;;;33.42;;
58647;SDS011;45992;45.920;20.074;2022-12-18T02:37:07;62.97;;;33.55;;
58647;SDS011;45992;45.920;20.074;2022-12-18T02:39:35;58.70;;;32.47;;
58647;SDS011;45992;45.920;20.074;2022-12-18T02:42:02;56.83;;;30.67;;
58647;SDS011;45992;45.920;20.074;2022-12-18T02:44:32;51.65;;;30.33;;
58647;SDS011;45992;45.920;20.074;2022-12-18T02:46:58;50.97;;;29.73;;
58647;SDS011;45992;45.920;20.074;2022-12-18T02:52:41;54.03;;;29.50;;
58647;SDS011;45992;45.920;20.074;2022-12-18T02:59:50;47.30;;;26.73;;
58647;SDS011;45992;45.920;20.074;2022-12-18T03:02:23;50.70;;;28.25;;
58647;SDS011;45992;45.920;20.074;2022-12-18T03:07:30;55.65;;;32.78;;
58647;SDS011;45992;45.920;20.074;2022-12-18T03:09:59;52.05;;;30.17;;
58647;SDS011;45992;45.920;20.074;2022-12-18T03:15:06;48.78;;;29.42;;
58647;SDS011;45992;45.920;20.074;2022-12-18T03:17:34;51.90;;;27.70;;
58647;SDS011;45992;45.920;20.074;2022-12-18T03:20:05;52.30;;;28.73;;
58647;SDS011;45992;45.920;20.074;2022-12-18T03:22:33;52.05;;;28.48;;
58647;SDS011;45992;45.920;20.074;2022-12-18T03:25:00;49.30;;;29.23;;
58647;SDS011;45992;45.920;20.074;2022-12-18T03:27:27;52.15;;;28.15;;
58647;SDS011;45992;45.920;20.074;2022-12-18T03:29:57;51.42;;;29.48;;
58647;SDS011;45992;45.920;20.074;2022-12-18T03:32:32;52.85;;;30.50;;
58647;SDS011;45992;45.920;20.074;2022-12-18T03:35:01;52.75;;;30.27;;
58647;SDS011;45992;45.920;20.074;2022-12-18T03:37:31;55.03;;;30.50;;
58647;SDS011;45992;45.920;20.074;2022-12-18T03:39:57;53.10;;;30.52;;
58647;SDS011;45992;45.920;20.074;2022-12-18T03:42:25;51.30;;;28.58;;
58647;SDS011;45992;45.920;20.074;2022-12-18T03:44:57;52.85;;;31.88;;
58647;SDS011;45992;45.920;20.074;2022-12-18T03:52:26;55.03;;;28.17;;
58647;SDS011;45992;45.920;20.074;2022-12-18T03:54:53;49.45;;;27.48;;
58647;SDS011;45992;45.920;20.074;2022-12-18T03:57:24;52.70;;;28.42;;
58647;SDS011;45992;45.920;20.074;2022-12-18T03:59:54;53.38;;;30.02;;
58647;SDS011;45992;45.920;20.074;2022-12-18T04:02:21;49.70;;;28.25;;
58647;SDS011;45992;45.920;20.074;2022-12-18T04:04:48;51.83;;;28.25;;
58647;SDS011;45992;45.920;20.074;2022-12-18T04:07:16;48.90;;;28.42;;
58647;SDS011;45992;45.920;20.074;2022-12-18T04:09:42;51.93;;;28.60;;
58647;SDS011;45992;45.920;20.074;2022-12-18T04:12:09;45.35;;;27.10;;
58647;SDS011;45992;45.920;20.074;2022-12-18T04:14:35;52.22;;;27.45;;
58647;SDS011;45992;45.920;20.074;2022-12-18T04:17:02;49.83;;;26.92;;
58647;SDS011;45992;45.920;20.074;2022-12-18T04:19:28;49.97;;;26.95;;
58647;SDS011;45992;45.920;20.074;2022-12-18T04:21:54;48.30;;;27.40;;
58647;SDS011;45992;45.920;20.074;2022-12-18T04:24:20;49.70;;;27.70;;
58647;SDS011;45992;45.920;20.074;2022-12-18T04:26:46;52.22;;;29.02;;
58647;SDS011;45992;45.920;20.074;2022-12-18T04:29:12;50.05;;;26.92;;
58647;SDS011;45992;45.920;20.074;2022-12-18T04:31:38;49.90;;;27.17;;
58647;SDS011;45992;45.920;20.074;2022-12-18T04:34:04;47.13;;;27.73;;
58647;SDS011;45992;45.920;20.074;2022-12-18T04:36:30;48.83;;;25.75;;
58647;SDS011;45992;45.920;20.074;2022-12-18T04:38:56;46.28;;;25.70;;
58647;SDS011;45992;45.920;20.074;2022-12-18T04:41:22;54.80;;;27.77;;
58647;SDS011;45992;45.920;20.074;2022-12-18T04:43:48;47.33;;;27.97;;
58647;SDS011;45992;45.920;20.074;2022-12-18T04:46:14;53.47;;;30.03;;
58647;SDS011;45992;45.920;20.074;2022-12-18T04:48:40;50.80;;;29.80;;
58647;SDS011;45992;45.920;20.074;2022-12-18T04:51:07;50.53;;;28.23;;
58647;SDS011;45992;45.920;20.074;2022-12-18T04:53:33;52.25;;;27.83;;
58647;SDS011;45992;45.920;20.074;2022-12-18T04:56:06;50.50;;;28.65;;
58647;SDS011;45992;45.920;20.074;2022-12-18T04:58:32;51.17;;;27.88;;
58647;SDS011;45992;45.920;20.074;2022-12-18T05:00:58;48.07;;;26.37;;
58647;SDS011;45992;45.920;20.074;2022-12-18T05:03:24;51.67;;;27.60;;
58647;SDS011;45992;45.920;20.074;2022-12-18T05:05:50;53.33;;;29.75;;
58647;SDS011;45992;45.920;20.074;2022-12-18T05:08:17;53.87;;;27.93;;
58647;SDS011;45992;45.920;20.074;2022-12-18T05:10:43;52.10;;;28.98;;
58647;SDS011;45992;45.920;20.074;2022-12-18T05:13:09;49.38;;;27.50;;
58647;SDS011;45992;45.920;20.074;2022-12-18T05:15:35;49.30;;;28.33;;
58647;SDS011;45992;45.920;20.074;2022-12-18T05:18:02;56.67;;;30.10;;
58647;SDS011;45992;45.920;20.074;2022-12-18T05:20:28;51.88;;;30.33;;
58647;SDS011;45992;45.920;20.074;2022-12-18T05:22:55;52.67;;;31.38;;
58647;SDS011;45992;45.920;20.074;2022-12-18T05:25:21;52.50;;;31.35;;
58647;SDS011;45992;45.920;20.074;2022-12-18T05:27:47;54.65;;;29.08;;
58647;SDS011;45992;45.920;20.074;2022-12-18T05:30:14;59.17;;;29.87;;
58647;SDS011;45992;45.920;20.074;2022-12-18T05:32:40;74.10;;;39.15;;
58647;SDS011;45992;45.920;20.074;2022-12-18T05:35:08;90.40;;;48.35;;
58647;SDS011;45992;45.920;20.074;2022-12-18T05:37:34;92.28;;;49.10;;
58647;SDS011;45992;45.920;20.074;2022-12-18T05:40:00;91.97;;;50.10;;
58647;SDS011;45992;45.920;20.074;2022-12-18T05:42:26;98.70;;;53.70;;
58647;SDS011;45992;45.920;20.074;2022-12-18T05:44:52;89.55;;;50.38;;
58647;SDS011;45992;45.920;20.074;2022-12-18T05:47:18;79.83;;;43.30;;
58647;SDS011;45992;45.920;20.074;2022-12-18T05:49:44;69.87;;;38.07;;
58647;SDS011;45992;45.920;20.074;2022-12-18T05:52:10;71.35;;;38.55;;
58647;SDS011;45992;45.920;20.074;2022-12-18T05:54:36;75.97;;;40.77;;
58647;SDS011;45992;45.920;20.074;2022-12-18T05:57:03;75.30;;;39.30;;
58647;SDS011;45992;45.920;20.074;2022-12-18T05:59:28;66.60;;;35.47;;
58647;SDS011;45992;45.920;20.074;2022-12-18T06:01:54;67.28;;;38.35;;
58647;SDS011;45992;45.920;20.074;2022-12-18T06:04:21;70.53;;;37.70;;
58647;SDS011;45992;45.920;20.074;2022-12-18T06:06:47;73.73;;;40.47;;
58647;SDS011;45992;45.920;20.074;2022-12-18T06:09:13;76.50;;;40.77;;
58647;SDS011;45992;45.920;20.074;2022-12-18T06:11:39;76.33;;;41.40;;
58647;SDS011;45992;45.920;20.074;2022-12-18T06:14:05;72.90;;;39.77;;
58647;SDS011;45992;45.920;20.074;2022-12-18T06:16:32;71.13;;;39.13;;
58647;SDS011;45992;45.920;20.074;2022-12-18T06:18:58;74.50;;;42.90;;
58647;SDS011;45992;45.920;20.074;2022-12-18T06:21:24;75.45;;;42.97;;
58647;SDS011;45992;45.920;20.074;2022-12-18T06:23:50;74.97;;;41.03;;
58647;SDS011;45992;45.920;20.074;2022-12-18T06:26:16;76.40;;;40.70;;
58647;SDS011;45992;45.920;20.074;2022-12-18T06:28:42;82.53;;;39.67;;
58647;SDS011;45992;45.920;20.074;2022-12-18T06:31:09;84.80;;;42.63;;
58647;SDS011;45992;45.920;20.074;2022-12-18T06:33:35;90.03;;;45.97;;
58647;SDS011;45992;45.920;20.074;2022-12-18T06:36:09;88.18;;;46.17;;
58647;SDS011;45992;45.920;20.074;2022-12-18T06:38:36;77.50;;;39.70;;
58647;SDS011;45992;45.920;20.074;2022-12-18T06:41:08;69.18;;;39.38;;
58647;SDS011;45992;45.920;20.074;2022-12-18T06:43:34;85.60;;;46.15;;
58647;SDS011;45992;45.920;20.074;2022-12-18T06:46:01;90.65;;;49.15;;
58647;SDS011;45992;45.920;20.074;2022-12-18T06:48:28;89.22;;;50.40;;
58647;SDS011;45992;45.920;20.074;2022-12-18T06:50:54;89.22;;;48.65;;
58647;SDS011;45992;45.920;20.074;2022-12-18T06:53:20;73.25;;;42.90;;
58647;SDS011;45992;45.920;20.074;2022-12-18T06:55:46;75.77;;;43.33;;
58647;SDS011;45992;45.920;20.074;2022-12-18T06:58:12;84.57;;;46.30;;
58647;SDS011;45992;45.920;20.074;2022-12-18T07:00:38;94.57;;;50.93;;
58647;SDS011;45992;45.920;20.074;2022-12-18T07:03:04;109.00;;;59.50;;
58647;SDS011;45992;45.920;20.074;2022-12-18T07:05:30;97.70;;;55.87;;
58647;SDS011;45992;45.920;20.074;2022-12-18T07:07:56;78.70;;;45.75;;
58647;SDS011;45992;45.920;20.074;2022-12-18T07:10:22;82.77;;;47.27;;
58647;SDS011;45992;45.920;20.074;2022-12-18T07:12:48;84.00;;;48.60;;
58647;SDS011;45992;45.920;20.074;2022-12-18T07:15:14;92.33;;;54.73;;
58647;SDS011;45992;45.920;20.074;2022-12-18T07:17:40;103.20;;;65.00;;
58647;SDS011;45992;45.920;20.074;2022-12-18T07:20:06;109.87;;;67.43;;
58647;SDS011;45992;45.920;20.074;2022-12-18T07:22:32;130.98;;;81.88;;
58647;SDS011;45992;45.920;20.074;2022-12-18T07:24:58;131.07;;;85.30;;
58647;SDS011;45992;45.920;20.074;2022-12-18T07:27:24;136.20;;;85.70;;
58647;SDS011;45992;45.920;20.074;2022-12-18T07:29:50;128.53;;;79.30;;
58647;SDS011;45992;45.920;20.074;2022-12-18T07:32:17;116.22;;;70.53;;
58647;SDS011;45992;45.920;20.074;2022-12-18T07:34:43;108.03;;;72.63;;
58647;SDS011;45992;45.920;20.074;2022-12-18T07:37:09;100.10;;;66.07;;
58647;SDS011;45992;45.920;20.074;2022-12-18T07:39:35;119.13;;;71.90;;
58647;SDS011;45992;45.920;20.074;2022-12-18T07:42:01;133.20;;;79.43;;
58647;SDS011;45992;45.920;20.074;2022-12-18T07:44:46;103.72;;;65.05;;
58647;SDS011;45992;45.920;20.074;2022-12-18T07:47:12;118.70;;;73.68;;
58647;SDS011;45992;45.920;20.074;2022-12-18T07:49:38;113.57;;;68.93;;
58647;SDS011;45992;45.920;20.074;2022-12-18T07:52:04;114.80;;;71.20;;
58647;SDS011;45992;45.920;20.074;2022-12-18T07:54:30;101.85;;;62.00;;
58647;SDS011;45992;45.920;20.074;2022-12-18T07:56:56;81.50;;;51.27;;
58647;SDS011;45992;45.920;20.074;2022-12-18T07:59:22;96.32;;;61.72;;
58647;SDS011;45992;45.920;20.074;2022-12-18T08:01:48;100.00;;;64.57;;
58647;SDS011;45992;45.920;20.074;2022-12-18T08:04:14;105.60;;;66.20;;
58647;SDS011;45992;45.920;20.074;2022-12-18T08:06:40;92.75;;;57.05;;
58647;SDS011;45992;45.920;20.074;2022-12-18T08:09:06;95.38;;;64.10;;
58647;SDS011;45992;45.920;20.074;2022-12-18T08:11:33;104.63;;;64.75;;
58647;SDS011;45992;45.920;20.074;2022-12-18T08:13:59;78.07;;;49.28;;
58647;SDS011;45992;45.920;20.074;2022-12-18T08:16:26;76.05;;;44.50;;
58647;SDS011;45992;45.920;20.074;2022-12-18T08:18:52;87.22;;;52.47;;
58647;SDS011;45992;45.920;20.074;2022-12-18T08:21:20;117.05;;;67.80;;
58647;SDS011;45992;45.920;20.074;2022-12-18T08:23:47;84.97;;;52.47;;
58647;SDS011;45992;45.920;20.074;2022-12-18T08:26:14;79.82;;;50.75;;
58647;SDS011;45992;45.920;20.074;2022-12-18T08:28:40;90.00;;;52.60;;
58647;SDS011;45992;45.920;20.074;2022-12-18T08:31:07;95.70;;;54.15;;
58647;SDS011;45992;45.920;20.074;2022-12-18T08:33:33;84.93;;;48.00;;
58647;SDS011;45992;45.920;20.074;2022-12-18T08:35:59;72.60;;;45.20;;
58647;SDS011;45992;45.920;20.074;2022-12-18T08:38:25;78.13;;;43.65;;
58647;SDS011;45992;45.920;20.074;2022-12-18T08:40:58;67.32;;;42.65;;
58647;SDS011;45992;45.920;20.074;2022-12-18T08:43:25;71.53;;;44.88;;
58647;SDS011;45992;45.920;20.074;2022-12-18T08:46:10;74.47;;;44.03;;
58647;SDS011;45992;45.920;20.074;2022-12-18T08:48:36;85.10;;;49.67;;
58647;SDS011;45992;45.920;20.074;2022-12-18T08:51:02;75.13;;;42.40;;
58647;SDS011;45992;45.920;20.074;2022-12-18T08:53:28;58.93;;;34.70;;
58647;SDS011;45992;45.920;20.074;2022-12-18T08:55:55;61.25;;;35.03;;
58647;SDS011;45992;45.920;20.074;2022-12-18T08:58:22;63.95;;;37.05;;
58647;SDS011;45992;45.920;20.074;2022-12-18T09:00:48;65.23;;;37.73;;
58647;SDS011;45992;45.920;20.074;2022-12-18T09:03:14;63.63;;;35.93;;
58647;SDS011;45992;45.920;20.074;2022-12-18T09:05:40;63.42;;;35.28;;
58647;SDS011;45992;45.920;20.074;2022-12-18T09:08:06;64.95;;;38.35;;
58647;SDS011;45992;45.920;20.074;2022-12-18T09:10:33;60.57;;;37.47;;
58647;SDS011;45992;45.920;20.074;2022-12-18T09:12:59;63.70;;;35.90;;
58647;SDS011;45992;45.920;20.074;2022-12-18T09:15:25;65.88;;;36.70;;
58647;SDS011;45992;45.920;20.074;2022-12-18T09:17:51;69.20;;;37.93;;
58647;SDS011;45992;45.920;20.074;2022-12-18T09:20:18;72.28;;;42.58;;
58647;SDS011;45992;45.920;20.074;2022-12-18T09:22:44;64.55;;;37.75;;
58647;SDS011;45992;45.920;20.074;2022-12-18T09:25:10;65.90;;;38.70;;
58647;SDS011;45992;45.920;20.074;2022-12-18T09:27:36;74.53;;;42.55;;
58647;SDS011;45992;45.920;20.074;2022-12-18T09:30:02;67.80;;;37.80;;
58647;SDS011;45992;45.920;20.074;2022-12-18T09:32:28;87.63;;;49.08;;
58647;SDS011;45992;45.920;20.074;2022-12-18T09:34:54;67.97;;;38.03;;
58647;SDS011;45992;45.920;20.074;2022-12-18T09:37:20;69.60;;;39.43;;
58647;SDS011;45992;45.920;20.074;2022-12-18T09:39:46;64.97;;;37.63;;
58647;SDS011;45992;45.920;20.074;2022-12-18T09:42:16;70.20;;;39.60;;
58647;SDS011;45992;45.920;20.074;2022-12-18T09:44:44;66.13;;;37.35;;
58647;SDS011;45992;45.920;20.074;2022-12-18T09:47:17;75.43;;;40.35;;
58647;SDS011;45992;45.920;20.074;2022-12-18T09:49:45;69.88;;;38.30;;
58647;SDS011;45992;45.920;20.074;2022-12-18T09:52:14;69.45;;;36.15;;
58647;SDS011;45992;45.920;20.074;2022-12-18T09:54:41;72.35;;;41.17;;
58647;SDS011;45992;45.920;20.074;2022-12-18T09:57:17;68.03;;;39.67;;
58647;SDS011;45992;45.920;20.074;2022-12-18T09:59:44;77.53;;;44.05;;
58647;SDS011;45992;45.920;20.074;2022-12-18T10:02:19;76.50;;;42.67;;
58647;SDS011;45992;45.920;20.074;2022-12-18T10:04:49;70.90;;;40.63;;
58647;SDS011;45992;45.920;20.074;2022-12-18T10:07:37;80.55;;;46.40;;
58647;SDS011;45992;45.920;20.074;2022-12-18T10:17:50;74.15;;;41.83;;
58647;SDS011;45992;45.920;20.074;2022-12-18T10:20:20;74.47;;;41.97;;
58647;SDS011;45992;45.920;20.074;2022-12-18T10:27:56;91.28;;;51.63;;
58647;SDS011;45992;45.920;20.074;2022-12-18T10:30:23;83.22;;;45.55;;
58647;SDS011;45992;45.920;20.074;2022-12-18T10:32:50;78.68;;;46.90;;
58647;SDS011;45992;45.920;20.074;2022-12-18T10:35:21;80.85;;;46.58;;
58647;SDS011;45992;45.920;20.074;2022-12-18T10:40:28;67.63;;;40.63;;
58647;SDS011;45992;45.920;20.074;2022-12-18T10:43:13;70.53;;;39.70;;
58647;SDS011;45992;45.920;20.074;2022-12-18T10:45:39;84.82;;;49.20;;
58647;SDS011;45992;45.920;20.074;2022-12-18T10:48:17;57.00;;;30.88;;
58647;SDS011;45992;45.920;20.074;2022-12-18T10:50:45;66.25;;;37.08;;
58647;SDS011;45992;45.920;20.074;2022-12-18T10:53:13;59.25;;;33.75;;
58647;SDS011;45992;45.920;20.074;2022-12-18T10:55:44;56.28;;;31.63;;
58647;SDS011;45992;45.920;20.074;2022-12-18T10:58:18;55.95;;;29.00;;
58647;SDS011;45992;45.920;20.074;2022-12-18T11:03:46;59.17;;;33.97;;
58647;SDS011;45992;45.920;20.074;2022-12-18T11:06:13;99.32;;;54.05;;
58647;SDS011;45992;45.920;20.074;2022-12-18T11:08:40;76.70;;;42.78;;
58647;SDS011;45992;45.920;20.074;2022-12-18T11:11:14;49.92;;;29.20;;
58647;SDS011;45992;45.920;20.074;2022-12-18T11:13:41;53.33;;;30.80;;
58647;SDS011;45992;45.920;20.074;2022-12-18T11:16:18;49.88;;;27.02;;
58647;SDS011;45992;45.920;20.074;2022-12-18T11:18:44;58.05;;;36.60;;
58647;SDS011;45992;45.920;20.074;2022-12-18T11:21:11;42.47;;;23.05;;
58647;SDS011;45992;45.920;20.074;2022-12-18T11:23:44;36.08;;;21.55;;
58647;SDS011;45992;45.920;20.074;2022-12-18T11:26:12;42.60;;;26.58;;
58647;SDS011;45992;45.920;20.074;2022-12-18T11:28:40;45.47;;;28.15;;
58647;SDS011;45992;45.920;20.074;2022-12-18T11:33:35;47.65;;;25.77;;
58647;SDS011;45992;45.920;20.074;2022-12-18T11:36:03;47.20;;;27.48;;
58647;SDS011;45992;45.920;20.074;2022-12-18T11:38:39;62.17;;;34.10;;
58647;SDS011;45992;45.920;20.074;2022-12-18T11:44:14;39.40;;;21.83;;
58647;SDS011;45992;45.920;20.074;2022-12-18T11:46:45;42.50;;;23.92;;
58647;SDS011;45992;45.920;20.074;2022-12-18T11:49:12;58.33;;;34.88;;
58647;SDS011;45992;45.920;20.074;2022-12-18T11:51:44;43.35;;;25.67;;
58647;SDS011;45992;45.920;20.074;2022-12-18T11:54:13;47.33;;;27.42;;
58647;SDS011;45992;45.920;20.074;2022-12-18T11:56:44;36.83;;;20.30;;
58647;SDS011;45992;45.920;20.074;2022-12-18T12:09:21;51.40;;;26.17;;
58647;SDS011;45992;45.920;20.074;2022-12-18T12:12:13;39.30;;;23.77;;
58647;SDS011;45992;45.920;20.074;2022-12-18T12:23:27;42.90;;;24.63;;
58647;SDS011;45992;45.920;20.074;2022-12-18T12:27:58;42.67;;;24.20;;
58647;SDS011;45992;45.920;20.074;2022-12-18T12:30:37;43.35;;;23.98;;
58647;SDS011;45992;45.920;20.074;2022-12-18T12:40:35;54.03;;;28.90;;
58647;SDS011;45992;45.920;20.074;2022-12-18T12:43:05;38.50;;;22.25;;
58647;SDS011;45992;45.920;20.074;2022-12-18T12:45:46;35.67;;;20.75;;
58647;SDS011;45992;45.920;20.074;2022-12-18T12:48:35;39.97;;;22.45;;
58647;SDS011;45992;45.920;20.074;2022-12-18T12:51:00;38.03;;;23.40;;
58647;SDS011;45992;45.920;20.074;2022-12-18T12:53:33;57.58;;;31.10;;
58647;SDS011;45992;45.920;20.074;2022-12-18T12:56:00;61.38;;;33.10;;
58647;SDS011;45992;45.920;20.074;2022-12-18T12:58:36;64.28;;;40.00;;
58647;SDS011;45992;45.920;20.074;2022-12-18T13:06:50;44.97;;;25.63;;
58647;SDS011;45992;45.920;20.074;2022-12-18T13:08:58;40.08;;;22.92;;
58647;SDS011;45992;45.920;20.074;2022-12-18T13:11:43;52.97;;;29.38;;
58647;SDS011;45992;45.920;20.074;2022-12-18T13:19:39;80.47;;;45.17;;
58647;SDS011;45992;45.920;20.074;2022-12-18T13:22:12;89.53;;;46.60;;
58647;SDS011;45992;45.920;20.074;2022-12-18T13:24:46;50.97;;;29.23;;
58647;SDS011;45992;45.920;20.074;2022-12-18T13:29:57;57.08;;;34.88;;
58647;SDS011;45992;45.920;20.074;2022-12-18T13:32:24;44.80;;;29.63;;
58647;SDS011;45992;45.920;20.074;2022-12-18T13:37:44;86.47;;;49.80;;
58647;SDS011;45992;45.920;20.074;2022-12-18T13:43:05;68.30;;;35.35;;
58647;SDS011;45992;45.920;20.074;2022-12-18T13:48:24;130.82;;;68.40;;
58647;SDS011;45992;45.920;20.074;2022-12-18T13:53:34;77.07;;;42.70;;
58647;SDS011;45992;45.920;20.074;2022-12-18T13:56:01;56.47;;;35.65;;
58647;SDS011;45992;45.920;20.074;2022-12-18T13:58:28;69.03;;;41.78;;
58647;SDS011;45992;45.920;20.074;2022-12-18T14:00:54;95.37;;;52.13;;
58647;SDS011;45992;45.920;20.074;2022-12-18T14:03:21;151.23;;;84.67;;
58647;SDS011;45992;45.920;20.074;2022-12-18T14:05:52;116.55;;;62.83;;
58647;SDS011;45992;45.920;20.074;2022-12-18T14:08:18;196.65;;;109.40;;
58647;SDS011;45992;45.920;20.074;2022-12-18T14:10:45;356.90;;;173.67;;
58647;SDS011;45992;45.920;20.074;2022-12-18T14:13:16;158.52;;;84.00;;
58647;SDS011;45992;45.920;20.074;2022-12-18T14:15:45;255.65;;;123.88;;
58647;SDS011;45992;45.920;20.074;2022-12-18T14:20:42;123.75;;;67.05;;
58647;SDS011;45992;45.920;20.074;2022-12-18T14:25:56;63.13;;;36.83;;
58647;SDS011;45992;45.920;20.074;2022-12-18T14:28:22;165.73;;;93.67;;
58647;SDS011;45992;45.920;20.074;2022-12-18T14:30:49;154.60;;;86.23;;
58647;SDS011;45992;45.920;20.074;2022-12-18T14:33:25;302.80;;;166.00;;
58647;SDS011;45992;45.920;20.074;2022-12-18T14:35:56;141.85;;;82.57;;
58647;SDS011;45992;45.920;20.074;2022-12-18T14:38:24;301.58;;;160.93;;
58647;SDS011;45992;45.920;20.074;2022-12-18T14:40:54;482.15;;;269.98;;
58647;SDS011;45992;45.920;20.074;2022-12-18T14:43:20;286.20;;;138.80;;
58647;SDS011;45992;45.920;20.074;2022-12-18T14:45:47;306.20;;;164.15;;
58647;SDS011;45992;45.920;20.074;2022-12-18T14:48:19;280.05;;;152.52;;
58647;SDS011;45992;45.920;20.074;2022-12-18T14:50:45;269.88;;;151.25;;
58647;SDS011;45992;45.920;20.074;2022-12-18T14:53:20;131.48;;;80.25;;
58647;SDS011;45992;45.920;20.074;2022-12-18T14:55:47;122.15;;;65.30;;
58647;SDS011;45992;45.920;20.074;2022-12-18T14:58:14;191.23;;;106.13;;
58647;SDS011;45992;45.920;20.074;2022-12-18T15:00:41;259.63;;;136.13;;
58647;SDS011;45992;45.920;20.074;2022-12-18T15:03:07;355.08;;;183.75;;
58647;SDS011;45992;45.920;20.074;2022-12-18T15:05:34;276.40;;;136.13;;
58647;SDS011;45992;45.920;20.074;2022-12-18T15:08:00;317.43;;;153.87;;
58647;SDS011;45992;45.920;20.074;2022-12-18T15:10:31;297.77;;;148.10;;
58647;SDS011;45992;45.920;20.074;2022-12-18T15:15:46;211.30;;;111.22;;
58647;SDS011;45992;45.920;20.074;2022-12-18T15:18:13;255.43;;;147.63;;
58647;SDS011;45992;45.920;20.074;2022-12-18T15:25:40;182.97;;;95.00;;
58647;SDS011;45992;45.920;20.074;2022-12-18T15:28:16;385.80;;;184.60;;
58647;SDS011;45992;45.920;20.074;2022-12-18T15:33:34;519.10;;;267.00;;
58647;SDS011;45992;45.920;20.074;2022-12-18T15:36:05;481.88;;;251.52;;
58647;SDS011;45992;45.920;20.074;2022-12-18T15:38:31;459.02;;;239.10;;
58647;SDS011;45992;45.920;20.074;2022-12-18T15:40:57;486.05;;;268.63;;
58647;SDS011;45992;45.920;20.074;2022-12-18T15:43:24;320.85;;;173.73;;
58647;SDS011;45992;45.920;20.074;2022-12-18T15:46:00;276.42;;;146.05;;
58647;SDS011;45992;45.920;20.074;2022-12-18T15:48:26;239.10;;;125.47;;
58647;SDS011;45992;45.920;20.074;2022-12-18T15:50:52;308.50;;;155.30;;
58647;SDS011;45992;45.920;20.074;2022-12-18T15:53:20;335.65;;;157.90;;
58647;SDS011;45992;45.920;20.074;2022-12-18T15:55:46;207.60;;;114.72;;
58647;SDS011;45992;45.920;20.074;2022-12-18T15:58:31;162.25;;;103.38;;
58647;SDS011;45992;45.920;20.074;2022-12-18T16:00:58;199.40;;;117.28;;
58647;SDS011;45992;45.920;20.074;2022-12-18T16:03:24;302.25;;;153.43;;
58647;SDS011;45992;45.920;20.074;2022-12-18T16:05:50;268.58;;;143.95;;
58647;SDS011;45992;45.920;20.074;2022-12-18T16:08:16;296.38;;;155.80;;
58647;SDS011;45992;45.920;20.074;2022-12-18T16:10:42;376.40;;;200.37;;
58647;SDS011;45992;45.920;20.074;2022-12-18T16:13:12;271.90;;;132.27;;
58647;SDS011;45992;45.920;20.074;2022-12-18T16:15:41;181.65;;;95.20;;
58647;SDS011;45992;45.920;20.074;2022-12-18T16:24:15;146.68;;;87.05;;